ADDS METAR Data INFO
IDs: Format: Raw Decoded Include TAF

Data at: 1749 UTC 21 Oct 2017

KRME 211653Z 00000KT 10SM CLR 20/06 A3031 RMK AO2 SLP262 T02000061
KRME 211553Z 00000KT 10SM CLR 18/05 A3032 RMK AO2 SLP267 T01830050
KRME 211453Z 00000KT 10SM CLR 14/06 A3034 RMK AO2 SLP274 T01440061 50005
KRME 211353Z 11003KT 10SM CLR 11/05 A3034 RMK AO2 SLP276 T01060050
KRME 211253Z 00000KT 10SM CLR 06/04 A3034 RMK AO2 SLP275 T00610039
KRME 211153Z 00000KT 10SM CLR 03/02 A3032 RMK AO2 SLP271 T00280017 10050 20028 51015
KRME 211053Z 11005KT 10SM CLR 03/02 A3031 RMK AO2 SLP265 T00330022
KRME 210953Z AUTO 00000KT 10SM CLR 03/02 A3030 RMK AO2 SLP260 T00280017
KRME 210853Z AUTO 00000KT 10SM CLR 03/02 A3028 RMK AO2 SLP253 T00330017 53004
KRME 210753Z AUTO 00000KT 10SM CLR 04/02 A3027 RMK AO2 SLP250 T00390022
KRME 210653Z AUTO 14004KT 10SM CLR 04/02 A3027 RMK AO2 SLP250 T00390022
KRME 210553Z AUTO 00000KT 10SM CLR 04/02 A3027 RMK AO2 SLP248 T00440022 10094 20039 53011
KRME 210453Z AUTO 00000KT 10SM CLR 05/03 A3025 RMK AO2 SLP245 T00500028 402000050
KRME 210353Z AUTO 00000KT 10SM CLR 06/03 A3024 RMK AO2 SLP241 T00560033
KRME 210253Z AUTO 00000KT 10SM CLR 06/03 A3023 RMK AO2 SLP238 T00560033 53007
KRME 210153Z AUTO 00000KT 10SM CLR 07/03 A3022 RMK AO2 SLP234 T00670028
KRME 210053Z 00000KT 10SM CLR 09/03 A3021 RMK AO2 SLP231 T00890028
KRME 202353Z 00000KT 10SM CLR 09/03 A3021 RMK AO2 SLP232 T00940028 10200 20094 53009
KRME 202253Z 34003KT 10SM CLR 13/01 A3021 RMK AO2 SLP229 T01280011
KRME 202153Z 32005KT 10SM CLR 15/02 A3018 RMK AO2 SLP221 T01500017
KRME 202053Z 29013KT 10SM CLR 18/02 A3019 RMK AO2 SLP221 T01830022 53004
KRME 201953Z 29013KT 10SM CLR 19/04 A3017 RMK AO2 SLP217 T01940039
KRME 201853Z 28011KT 10SM CLR 19/03 A3017 RMK AO2 SLP213 T01940028
KRME 201753Z 32007KT 10SM CLR 20/00 A3017 RMK AO2 SLP215 T02000000 10200 20061 58019
KRME 201653Z 28011KT 10SM CLR 18/03 A3019 RMK AO2 SLP223 T01830033
KRME 201553Z 28009KT 10SM CLR 16/07 A3022 RMK AO2 SLP230 T01610067
KRME 201453Z 28012KT 10SM CLR 14/07 A3023 RMK AO2 SLP235 T01390072 51014
KRME 201353Z 29009KT 10SM CLR 12/07 A3023 RMK AO2 SLP234 T01170072
KRME 201253Z 32004KT 10SM CLR 09/08 A3021 RMK AO2 SLP230 T00940078
KRME 201153Z 00000KT 10SM CLR 06/06 A3019 RMK AO2 SLP223 T00610056 10128 20050 53021
KRME 201053Z 00000KT 10SM CLR 06/06 A3017 RMK AO2 SLP214 T00610056
KRME 200953Z AUTO 31004KT 10SM CLR 06/06 A3014 RMK AO2 SLP206 T00610056
KRME 200853Z AUTO 33003KT 10SM CLR 06/05 A3013 RMK AO2 SLP201 T00610050 51010
KRME 200753Z AUTO 32005KT 10SM CLR 07/06 A3012 RMK AO2 SLP196 T00670061
KRME 200653Z AUTO 32006KT 10SM CLR 09/08 A3011 RMK AO2 SLP194 T00940078
KRME 200553Z AUTO 28007KT 10SM CLR 13/09 A3010 RMK AO2 SLP188 T01280089 10178 20111 51016